Time;durP1;ratioP1;P1;durP2;ratioP2;P2;SDS_P1;SDS_P2;PMS_P1;PMS_P2;Temp;Humidity;BMP_temperature;BMP_pressure;BME280_temperature;BME280_humidity;BME280_pressure;Samples;Min_cycle;Max_cycle;Signal;HPM_P1;HPM_P2
2021/07/12 00:00:23;;;;;;;5.15;3.97;;;19.00;99.90;;;;;;4974794;28;20074;-72
2021/07/12 00:02:50;;;;;;;4.30;3.90;;;19.00;99.90;;;;;;4974645;28;20070;-72
2021/07/12 00:05:16;;;;;;;5.53;4.20;;;19.00;99.90;;;;;;4974266;28;20042;-72
2021/07/12 00:07:42;;;;;;;6.00;3.78;;;18.90;99.90;;;;;;4973707;28;20035;-73
2021/07/12 00:10:10;;;;;;;5.95;3.88;;;18.90;99.90;;;;;;4974380;28;20138;-74
2021/07/12 00:12:36;;;;;;;6.00;4.00;;;18.90;99.90;;;;;;4974127;28;20027;-74
2021/07/12 00:15:06;;;;;;;4.82;4.03;;;18.80;99.90;;;;;;4974275;28;20030;-73
2021/07/12 00:17:31;;;;;;;6.23;3.53;;;18.80;99.90;;;;;;4974000;28;20372;-74
2021/07/12 00:19:57;;;;;;;6.53;3.83;;;18.80;99.90;;;;;;4974143;28;20042;-72
2021/07/12 00:22:23;;;;;;;7.03;3.88;;;18.70;99.90;;;;;;4974171;28;20023;-73
2021/07/12 00:24:48;;;;;;;3.75;3.45;;;18.70;99.90;;;;;;4974327;28;20487;-72
2021/07/12 00:27:14;;;;;;;5.95;3.63;;;18.70;99.90;;;;;;4974198;28;20352;-72
2021/07/12 00:29:40;;;;;;;4.22;3.83;;;18.70;99.90;;;;;;4973799;28;20031;-72
2021/07/12 00:32:06;;;;;;;3.75;3.35;;;18.80;99.90;;;;;;4973790;28;20027;-72
2021/07/12 00:34:32;;;;;;;3.88;3.47;;;18.80;99.90;;;;;;4973982;28;20423;-73
2021/07/12 00:36:58;;;;;;;3.45;3.15;;;18.80;99.90;;;;;;4974051;28;20053;-72
2021/07/12 00:39:23;;;;;;;3.85;3.30;;;18.80;99.90;;;;;;4973632;28;20479;-73
2021/07/12 00:41:50;;;;;;;5.70;3.60;;;18.70;99.90;;;;;;4973757;28;20051;-72
2021/07/12 00:44:16;;;;;;;3.75;3.45;;;18.70;99.90;;;;;;4973809;28;20031;-73
2021/07/12 00:46:42;;;;;;;4.60;3.30;;;18.60;99.90;;;;;;4973428;28;20479;-73
2021/07/12 00:49:08;;;;;;;3.63;3.33;;;18.60;99.90;;;;;;4973663;28;20033;-72
2021/07/12 00:51:34;;;;;;;3.88;3.40;;;18.60;99.90;;;;;;4973394;28;20039;-72
2021/07/12 00:54:00;;;;;;;4.70;3.17;;;18.60;99.90;;;;;;4973329;28;20054;-72
2021/07/12 00:56:26;;;;;;;4.15;3.33;;;18.60;99.90;;;;;;4973367;28;20058;-72
2021/07/12 00:58:51;;;;;;;4.40;3.30;;;18.60;99.90;;;;;;4973529;28;20043;-72
2021/07/12 01:01:17;;;;;;;4.18;2.90;;;18.50;99.90;;;;;;4973707;28;20034;-73
2021/07/12 01:03:43;;;;;;;5.20;3.00;;;18.50;99.90;;;;;;4973204;28;20030;-72
2021/07/12 01:06:09;;;;;;;4.70;3.08;;;18.60;99.90;;;;;;4973686;28;20467;-72
2021/07/12 01:08:35;;;;;;;3.63;3.03;;;18.60;99.90;;;;;;4973136;28;20491;-72
2021/07/12 01:11:01;;;;;;;5.65;3.10;;;18.60;99.90;;;;;;4973612;28;20038;-72
2021/07/12 01:14:08;;;;;;;4.80;2.90;;;18.60;99.90;;;;;;4973232;28;20035;-72
2021/07/12 01:16:59;;;;;;;5.15;2.88;;;18.50;99.90;;;;;;4973161;28;20479;-72
2021/07/12 01:53:36;;;;;;;4.40;2.65;;;18.20;99.90;;;;;;5359734;23;20062;-76
2021/07/12 01:56:16;;;;;;;6.97;2.60;;;18.30;99.90;;;;;;4940408;28;20074;-77
2021/07/12 01:58:52;;;;;;;4.75;2.83;;;18.20;99.90;;;;;;4974790;28;20025;-77
2021/07/12 02:01:21;;;;;;;3.42;2.40;;;18.20;99.90;;;;;;4992254;28;20158;-77
2021/07/12 02:03:47;;;;;;;2.92;2.60;;;18.20;99.90;;;;;;4992185;28;20109;-76
2021/07/12 02:06:15;;;;;;;4.35;2.30;;;18.20;99.90;;;;;;4992499;28;20112;-77
2021/07/12 02:08:46;;;;;;;4.57;2.40;;;18.20;99.90;;;;;;4992126;28;20037;-78
2021/07/12 02:11:16;;;;;;;2.45;2.25;;;18.20;99.90;;;;;;4992422;28;20081;-78
2021/07/12 02:13:44;;;;;;;4.50;2.30;;;18.20;99.90;;;;;;4992041;28;20030;-78
2021/07/12 02:16:11;;;;;;;7.75;2.58;;;18.20;99.90;;;;;;4992142;28;20022;-78
2021/07/12 02:18:39;;;;;;;3.95;2.38;;;18.20;99.90;;;;;;4992393;28;20118;-78
2021/07/12 02:21:08;;;;;;;5.63;2.17;;;18.20;99.90;;;;;;4992452;28;20105;-78
2021/07/12 02:23:36;;;;;;;3.17;2.13;;;18.20;99.90;;;;;;4992506;28;20026;-78
2021/07/12 02:26:03;;;;;;;2.60;2.10;;;18.10;99.90;;;;;;4992100;28;20030;-82
2021/07/12 02:28:30;;;;;;;2.33;2.13;;;18.20;99.90;;;;;;4992543;28;20030;-87
2021/07/12 02:30:56;;;;;;;4.55;2.20;;;18.20;99.90;;;;;;4996102;28;20037;-82
2021/07/12 02:33:24;;;;;;;2.95;2.08;;;18.10;99.90;;;;;;4995330;28;20544;-81
2021/07/12 02:35:53;;;;;;;2.13;1.77;;;18.10;99.90;;;;;;4995853;28;20076;-81
2021/07/12 02:38:19;;;;;;;4.20;1.63;;;18.10;99.90;;;;;;4995412;28;20462;-81
2021/07/12 02:40:46;;;;;;;3.03;1.75;;;18.10;99.90;;;;;;4995449;28;20034;-81
2021/07/12 02:43:12;;;;;;;1.80;1.70;;;18.20;99.90;;;;;;4995180;28;20113;-82
2021/07/12 02:45:39;;;;;;;3.15;1.65;;;18.20;99.90;;;;;;4995386;28;20035;-82
2021/07/12 02:48:06;;;;;;;2.35;1.70;;;18.10;99.90;;;;;;4995410;28;20026;-82
2021/07/12 02:50:32;;;;;;;3.70;1.33;;;18.20;99.90;;;;;;4995264;28;20116;-80
2021/07/12 02:53:01;;;;;;;1.70;1.00;;;18.20;99.90;;;;;;4994818;28;20054;-80
2021/07/12 02:55:27;;;;;;;1.30;1.20;;;18.30;99.90;;;;;;4995533;28;20026;-80
2021/07/12 02:57:53;;;;;;;2.50;1.40;;;18.30;99.90;;;;;;4995297;28;20500;-81
2021/07/12 03:00:19;;;;;;;1.23;0.93;;;18.40;99.90;;;;;;4995323;28;20053;-81
2021/07/12 03:02:44;;;;;;;2.78;0.95;;;18.50;99.90;;;;;;4995273;28;20022;-81
2021/07/12 03:05:11;;;;;;;1.63;0.90;;;18.50;99.90;;;;;;4994918;28;20034;-82
2021/07/12 03:08:08;;;;;;;1.50;0.90;;;18.60;99.90;;;;;;4995374;28;20460;-83
2021/07/12 03:10:41;;;;;;;0.77;0.77;;;18.70;99.90;;;;;;4995266;28;20025;-83
2021/07/12 03:13:12;;;;;;;2.05;1.05;;;18.70;99.90;;;;;;4994719;28;20042;-83
2021/07/12 03:15:47;;;;;;;1.23;0.70;;;18.80;99.90;;;;;;4995418;28;20073;-82
2021/07/12 03:18:29;;;;;;;0.68;0.68;;;18.80;99.90;;;;;;4995137;28;20054;-78
2021/07/12 03:20:59;;;;;;;2.50;0.60;;;18.90;99.90;;;;;;4995220;28;20027;-78
2021/07/12 03:23:27;;;;;;;2.70;0.80;;;19.10;99.90;;;;;;4994652;28;20027;-78
2021/07/12 03:25:59;;;;;;;0.88;0.70;;;19.40;99.90;;;;;;4995007;28;20042;-79
2021/07/12 03:28:26;;;;;;;1.80;0.60;;;19.90;99.90;;;;;;4994837;28;20034;-79
2021/07/12 03:30:53;;;;;;;1.92;0.50;;;20.30;99.90;;;;;;4994910;28;20030;-79
2021/07/12 03:33:20;;;;;;;1.27;0.70;;;20.60;99.90;;;;;;4994271;28;20512;-78
2021/07/12 03:35:48;;;;;;;0.63;0.50;;;20.70;99.90;;;;;;4994488;28;20034;-79
2021/07/12 03:38:20;;;;;;;3.13;0.45;;;20.80;99.90;;;;;;4994519;28;20027;-79
2021/07/12 03:40:46;;;;;;;0.43;0.32;;;20.70;99.90;;;;;;4993681;28;20088;-79
2021/07/12 03:43:14;;;;;;;0.63;0.50;;;20.70;99.90;;;;;;4994312;28;20061;-79
2021/07/12 03:45:41;;;;;;;0.50;0.50;;;20.90;99.90;;;;;;4994447;28;20078;-77
2021/07/12 03:48:08;;;;;;;0.50;0.35;;;21.20;99.90;;;;;;4994523;28;20030;-77
2021/07/12 03:50:34;;;;;;;0.95;0.40;;;21.40;99.90;;;;;;4994700;28;20026;-77
2021/07/12 03:53:02;;;;;;;0.55;0.30;;;21.70;99.90;;;;;;4993862;28;20574;-77
2021/07/12 03:55:29;;;;;;;1.50;0.30;;;22.00;99.90;;;;;;4994219;28;20030;-77
2021/07/12 03:57:56;;;;;;;0.80;0.40;;;22.30;99.90;;;;;;4994082;28;20029;-78
2021/07/12 04:00:29;;;;;;;0.60;0.40;;;22.60;99.90;;;;;;4994323;28;20113;-78
2021/07/12 04:02:56;;;;;;;0.30;0.30;;;22.80;99.90;;;;;;4994326;28;20111;-78
2021/07/12 04:05:27;;;;;;;1.10;0.40;;;23.00;99.90;;;;;;4993880;28;20053;-77
2021/07/12 04:07:55;;;;;;;0.43;0.30;;;23.30;99.40;;;;;;4994168;28;20031;-78
2021/07/12 04:10:21;;;;;;;1.75;0.40;;;23.50;98.20;;;;;;4993811;28;20504;-78
2021/07/12 04:12:47;;;;;;;5.10;0.30;;;23.70;97.50;;;;;;4993962;28;20054;-77
2021/07/12 04:15:14;;;;;;;2.55;0.30;;;23.90;95.70;;;;;;4993682;28;20029;-78
2021/07/12 04:17:41;;;;;;;0.75;0.28;;;24.10;94.30;;;;;;4993954;28;20026;-76
2021/07/12 04:20:07;;;;;;;0.85;0.25;;;24.30;93.80;;;;;;4993474;28;20474;-76
2021/07/12 04:22:33;;;;;;;2.05;0.20;;;24.40;92.70;;;;;;4993468;28;20121;-76
2021/07/12 04:24:59;;;;;;;0.28;0.20;;;24.60;91.60;;;;;;4993450;28;20538;-80
2021/07/12 04:27:25;;;;;;;1.10;0.22;;;24.80;90.60;;;;;;4993378;28;20034;-81
2021/07/12 04:29:51;;;;;;;0.20;0.20;;;24.90;88.40;;;;;;4993439;28;20026;-79
2021/07/12 04:32:16;;;;;;;0.10;0.10;;;25.00;86.60;;;;;;4993126;28;20037;-78
2021/07/12 04:34:42;;;;;;;1.75;0.20;;;25.20;85.10;;;;;;4993288;28;20026;-75
2021/07/12 04:37:08;;;;;;;4.25;0.20;;;25.30;84.00;;;;;;4993305;28;20027;-77
2021/07/12 04:39:34;;;;;;;0.35;0.20;;;25.50;81.90;;;;;;4993547;28;20026;-76
2021/07/12 04:42:00;;;;;;;0.30;0.20;;;25.60;80.10;;;;;;4993449;28;20031;-76
2021/07/12 04:44:26;;;;;;;0.57;0.15;;;25.70;80.40;;;;;;4992997;28;20081;-74
2021/07/12 04:46:51;;;;;;;0.32;0.20;;;25.80;78.60;;;;;;4993121;28;20026;-73
2021/07/12 04:49:17;;;;;;;1.20;0.13;;;26.00;77.00;;;;;;4992892;28;20033;-72
2021/07/12 04:51:44;;;;;;;0.77;0.20;;;26.10;75.90;;;;;;4992806;28;20026;-75
2021/07/12 04:54:10;;;;;;;2.15;0.20;;;26.20;75.60;;;;;;4992843;28;20042;-73
2021/07/12 04:56:36;;;;;;;0.15;0.15;;;26.20;74.90;;;;;;4993017;28;20023;-75
2021/07/12 04:59:07;;;;;;;0.13;0.13;;;26.30;74.10;;;;;;4993233;28;20106;-72
2021/07/12 05:01:34;;;;;;;0.90;0.32;;;26.40;73.60;;;;;;4993296;28;20022;-73
2021/07/12 05:04:01;;;;;;;0.63;0.20;;;26.40;72.60;;;;;;4993195;28;20034;-76
2021/07/12 05:06:27;;;;;;;1.27;0.20;;;26.40;74.00;;;;;;4992768;28;20034;-75
2021/07/12 05:08:53;;;;;;;0.50;0.32;;;26.60;71.50;;;;;;4992824;28;20497;-77
2021/07/12 05:11:19;;;;;;;0.50;0.20;;;26.60;70.80;;;;;;4993022;28;20113;-75
2021/07/12 05:13:45;;;;;;;0.75;0.20;;;26.70;69.80;;;;;;4992995;28;20373;-75
2021/07/12 05:16:11;;;;;;;0.25;0.20;;;26.80;71.10;;;;;;4992720;28;20533;-76
2021/07/12 05:18:38;;;;;;;0.20;0.10;;;26.80;69.50;;;;;;4992771;28;20030;-75
2021/07/12 05:21:04;;;;;;;4.90;0.32;;;26.90;69.10;;;;;;4992901;28;20041;-75
2021/07/12 05:23:30;;;;;;;1.70;0.20;;;27.10;68.60;;;;;;4992901;28;20039;-77
2021/07/12 05:25:56;;;;;;;0.20;0.20;;;27.10;67.50;;;;;;4992823;28;20056;-76
2021/07/12 05:28:23;;;;;;;1.38;0.20;;;27.10;66.70;;;;;;4992804;28;20101;-76
2021/07/12 05:30:49;;;;;;;0.85;0.20;;;27.10;66.30;;;;;;4992138;28;20117;-75
2021/07/12 05:33:15;;;;;;;0.20;0.10;;;27.00;65.50;;;;;;4992560;28;20037;-76
2021/07/12 05:35:41;;;;;;;1.15;0.20;;;27.10;66.30;;;;;;4992845;28;20022;-74
2021/07/12 05:38:07;;;;;;;0.25;0.13;;;27.30;65.70;;;;;;4992822;28;20036;-76
2021/07/12 05:40:34;;;;;;;0.45;0.20;;;27.40;64.50;;;;;;4992415;28;20032;-77
2021/07/12 05:43:00;;;;;;;0.50;0.20;;;27.40;64.50;;;;;;4985066;28;20034;-76
2021/07/12 05:45:26;;;;;;;1.55;0.20;;;27.40;63.60;;;;;;4981814;28;20023;-76
2021/07/12 05:47:52;;;;;;;2.08;0.20;;;27.20;63.80;;;;;;4973700;28;20110;-77
2021/07/12 05:50:17;;;;;;;2.05;0.20;;;27.00;64.50;;;;;;4982361;28;20049;-77
2021/07/12 05:52:43;;;;;;;0.55;0.17;;;27.20;64.90;;;;;;4992055;28;20082;-78
2021/07/12 05:55:10;;;;;;;0.30;0.30;;;27.40;63.40;;;;;;4992422;28;20025;-77
2021/07/12 05:57:36;;;;;;;3.85;0.10;;;27.60;62.80;;;;;;4992288;28;20030;-78
2021/07/12 06:00:04;;;;;;;0.40;0.20;;;27.70;62.00;;;;;;4992334;28;20018;-78
2021/07/12 06:02:29;;;;;;;1.08;0.30;;;27.60;61.20;;;;;;4992427;28;20034;-77
2021/07/12 06:04:55;;;;;;;2.40;0.65;;;27.60;61.40;;;;;;4994427;28;20029;-77
2021/07/12 06:07:22;;;;;;;0.47;0.20;;;27.60;61.20;;;;;;4996147;28;20330;-77
2021/07/12 06:09:48;;;;;;;1.85;0.22;;;27.70;61.70;;;;;;4996148;28;20632;-77
2021/07/12 06:12:13;;;;;;;0.20;0.20;;;27.70;60.80;;;;;;4996167;28;20049;-75
2021/07/12 06:14:39;;;;;;;0.30;0.28;;;27.70;60.80;;;;;;4995983;28;20031;-76
2021/07/12 06:17:05;;;;;;;10.68;1.40;;;27.80;61.00;;;;;;4995938;28;20033;-73
2021/07/12 06:19:31;;;;;;;3.10;0.80;;;27.80;59.90;;;;;;4995774;28;20045;-77
2021/07/12 06:21:56;;;;;;;2.28;0.35;;;27.70;60.10;;;;;;4995868;28;20030;-81
2021/07/12 06:24:22;;;;;;;0.30;0.30;;;27.80;60.10;;;;;;4995685;28;20042;-77
2021/07/12 06:26:48;;;;;;;0.38;0.30;;;27.70;60.30;;;;;;4995650;28;20036;-81
2021/07/12 06:29:13;;;;;;;2.22;0.28;;;27.80;60.30;;;;;;4995740;28;20030;-81
2021/07/12 06:31:39;;;;;;;0.40;0.22;;;27.60;59.90;;;;;;4995966;28;20022;-81
2021/07/12 06:34:05;;;;;;;1.67;0.40;;;27.70;60.50;;;;;;4995791;28;20429;-80
2021/07/12 06:36:31;;;;;;;0.40;0.28;;;27.90;60.70;;;;;;4995810;28;20036;-80
2021/07/12 06:38:56;;;;;;;1.20;0.30;;;27.90;60.00;;;;;;4995635;28;20486;-81
2021/07/12 06:41:22;;;;;;;1.42;0.35;;;27.80;60.50;;;;;;4995660;28;20026;-81
2021/07/12 06:43:49;;;;;;;1.95;0.20;;;27.80;59.60;;;;;;4995762;28;20378;-82
2021/07/12 06:46:15;;;;;;;3.13;0.50;;;27.80;59.60;;;;;;4995301;28;20023;-80
2021/07/12 06:48:41;;;;;;;1.05;0.20;;;27.50;59.00;;;;;;4995384;28;20034;-82
2021/07/12 06:51:08;;;;;;;1.23;0.30;;;27.30;58.70;;;;;;4995706;28;20026;-79
2021/07/12 06:53:35;;;;;;;1.95;0.40;;;27.10;59.30;;;;;;4994847;28;20053;-80
2021/07/12 06:56:01;;;;;;;0.30;0.30;;;27.00;59.40;;;;;;4995250;28;20030;-80
2021/07/12 06:58:27;;;;;;;1.50;0.28;;;26.90;58.90;;;;;;4984429;28;20027;-79
2021/07/12 07:00:53;;;;;;;0.40;0.30;;;26.80;59.50;;;;;;4975979;28;20054;-78
2021/07/12 07:03:19;;;;;;;0.80;0.30;;;26.80;59.90;;;;;;4975333;28;20058;-70
2021/07/12 07:05:44;;;;;;;0.73;0.30;;;26.80;59.80;;;;;;4975551;28;20022;-71
2021/07/12 07:08:11;;;;;;;0.40;0.30;;;26.80;59.40;;;;;;4975758;28;20070;-73
2021/07/12 07:10:36;;;;;;;2.28;0.40;;;26.90;59.20;;;;;;4975373;28;20026;-74
2021/07/12 07:13:02;;;;;;;0.20;0.20;;;27.00;59.30;;;;;;4975307;28;20035;-78
2021/07/12 07:15:29;;;;;;;0.32;0.20;;;26.80;58.50;;;;;;4975260;28;20034;-74
2021/07/12 07:17:55;;;;;;;0.60;0.30;;;26.70;59.10;;;;;;4975578;28;20034;-74
2021/07/12 07:20:21;;;;;;;0.30;0.30;;;26.50;59.40;;;;;;4975365;28;20077;-74
2021/07/12 07:22:47;;;;;;;1.98;0.50;;;26.30;59.20;;;;;;4986367;28;20030;-74
2021/07/12 07:25:13;;;;;;;0.70;0.30;;;26.30;59.20;;;;;;4994391;28;20112;-74
2021/07/12 07:27:40;;;;;;;0.68;0.40;;;26.20;59.70;;;;;;4994659;28;20026;-74
2021/07/12 07:30:07;;;;;;;1.73;0.30;;;26.10;60.50;;;;;;4994511;28;20032;-74
2021/07/12 07:32:33;;;;;;;0.38;0.30;;;26.20;60.50;;;;;;4994302;28;20466;-73
2021/07/12 07:34:59;;;;;;;1.55;0.38;;;26.10;60.30;;;;;;4994398;28;20085;-74
2021/07/12 07:37:24;;;;;;;0.30;0.30;;;26.10;60.20;;;;;;4994368;28;20030;-74
2021/07/12 07:39:50;;;;;;;1.00;0.40;;;26.10;60.10;;;;;;4989483;28;20086;-74
2021/07/12 07:42:16;;;;;;;0.95;0.30;;;26.10;60.10;;;;;;4990533;28;20027;-74
2021/07/12 07:44:42;;;;;;;1.20;0.38;;;26.10;59.80;;;;;;4984217;28;20520;-74
2021/07/12 07:47:09;;;;;;;2.67;0.45;;;26.00;60.40;;;;;;4984603;28;20035;-73
2021/07/12 07:49:35;;;;;;;0.60;0.30;;;26.00;59.60;;;;;;4991199;28;20037;-73
2021/07/12 07:52:01;;;;;;;1.23;0.50;;;25.90;59.90;;;;;;4983595;28;20122;-71
2021/07/12 07:54:27;;;;;;;0.68;0.40;;;25.80;60.00;;;;;;4982498;28;20583;-78
2021/07/12 07:56:53;;;;;;;1.38;0.40;;;25.80;60.80;;;;;;4980402;28;20501;-75
2021/07/12 07:59:18;;;;;;;9.65;1.38;;;25.80;60.00;;;;;;4986305;28;20031;-73
2021/07/12 08:01:45;;;;;;;1.48;0.30;;;25.70;60.30;;;;;;5013414;28;20030;-73
2021/07/12 08:04:11;;;;;;;1.55;0.40;;;25.80;61.00;;;;;;5013756;28;20030;-73
2021/07/12 08:06:36;;;;;;;1.70;0.40;;;25.80;60.90;;;;;;4999246;28;20033;-73
2021/07/12 08:09:03;;;;;;;1.25;0.63;;;25.80;60.70;;;;;;4994106;28;20025;-73
2021/07/12 08:11:33;;;;;;;2.78;0.38;;;25.80;61.40;;;;;;4994058;28;20393;-73
2021/07/12 08:13:59;;;;;;;3.20;0.52;;;25.90;61.40;;;;;;4994080;28;20030;-74
2021/07/12 08:16:25;;;;;;;0.40;0.30;;;26.00;60.60;;;;;;4993988;28;20029;-74
2021/07/12 08:18:51;;;;;;;1.75;0.32;;;25.90;60.50;;;;;;4993907;28;20062;-74
2021/07/12 08:21:17;;;;;;;0.55;0.35;;;25.80;60.50;;;;;;4993451;28;20025;-74
2021/07/12 08:23:43;;;;;;;1.90;0.30;;;25.80;60.60;;;;;;4993842;28;20077;-74
2021/07/12 08:26:10;;;;;;;0.93;0.32;;;25.70;60.30;;;;;;4993715;28;20033;-74
2021/07/12 08:28:36;;;;;;;1.52;0.55;;;25.70;60.70;;;;;;4992707;28;20030;-74
2021/07/12 08:31:03;;;;;;;1.33;0.40;;;25.70;61.30;;;;;;4993656;28;20022;-74
2021/07/12 08:33:29;;;;;;;2.10;0.50;;;25.80;60.80;;;;;;4993145;28;20478;-74
2021/07/12 08:35:56;;;;;;;2.70;0.50;;;25.80;59.80;;;;;;4993619;28;20026;-74
2021/07/12 08:38:21;;;;;;;0.90;0.30;;;25.80;60.10;;;;;;4993464;28;20034;-74
2021/07/12 08:40:47;;;;;;;1.63;0.50;;;25.70;59.30;;;;;;4993189;28;20394;-73
2021/07/12 08:43:17;;;;;;;1.27;0.35;;;25.80;59.20;;;;;;4993180;28;20414;-74
2021/07/12 08:45:42;;;;;;;1.10;0.45;;;25.80;59.50;;;;;;4993166;28;20475;-74
2021/07/12 08:48:08;;;;;;;1.60;0.40;;;25.80;59.40;;;;;;4993144;28;20030;-74
2021/07/12 08:50:34;;;;;;;4.10;0.40;;;25.70;59.70;;;;;;4992929;28;20030;-71
2021/07/12 08:53:00;;;;;;;0.40;0.40;;;25.70;59.90;;;;;;4985311;28;20049;-77
2021/07/12 08:55:26;;;;;;;0.30;0.30;;;25.70;59.90;;;;;;4973720;28;20459;-78
2021/07/12 08:58:02;;;;;;;1.30;0.50;;;25.70;59.90;;;;;;4977181;28;20371;-72
2021/07/12 09:00:47;;;;;;;0.50;0.40;;;25.90;60.30;;;;;;4973299;28;20773;-73
2021/07/12 09:03:27;;;;;;;0.68;0.30;;;25.90;58.10;;;;;;4973515;28;20042;-72
2021/07/12 09:05:58;;;;;;;2.53;0.38;;;25.90;58.40;;;;;;4973305;28;20023;-72
2021/07/12 09:08:41;;;;;;;1.52;0.40;;;25.90;58.70;;;;;;4973075;28;20035;-73
2021/07/12 09:11:11;;;;;;;1.50;0.40;;;25.90;58.10;;;;;;4973266;28;20070;-72
2021/07/12 09:13:44;;;;;;;1.88;0.40;;;25.90;57.80;;;;;;4973209;28;20034;-72
2021/07/12 09:16:48;;;;;;;0.20;0.20;;;25.80;58.10;;;;;;4973370;28;20034;-79
2021/07/12 09:19:35;;;;;;;0.52;0.20;;;25.90;57.60;;;;;;4973255;28;20106;-75
2021/07/12 09:22:15;;;;;;;0.52;0.40;;;25.90;57.60;;;;;;4973381;28;20023;-76
2021/07/12 09:24:55;;;;;;;1.35;0.38;;;25.80;58.00;;;;;;4973084;28;20035;-76
2021/07/12 09:27:29;;;;;;;1.77;0.60;;;25.80;59.10;;;;;;4973038;28;20478;-75
2021/07/12 09:29:59;;;;;;;2.00;0.30;;;25.90;59.50;;;;;;4973496;28;20031;-74
2021/07/12 09:32:28;;;;;;;1.20;0.50;;;26.00;58.50;;;;;;4973048;28;20019;-74
2021/07/12 09:35:01;;;;;;;0.65;0.22;;;25.90;57.80;;;;;;4973527;28;20041;-74
2021/07/12 09:37:27;;;;;;;1.83;0.32;;;25.90;58.00;;;;;;4973058;28;20023;-69
2021/07/12 09:39:55;;;;;;;1.40;0.40;;;25.90;58.10;;;;;;4975129;28;20110;-71
2021/07/12 09:42:31;;;;;;;1.67;0.45;;;25.90;57.10;;;;;;4977075;28;20023;-70
2021/07/12 09:45:03;;;;;;;0.22;0.20;;;25.80;57.30;;;;;;4977089;28;20026;-71
2021/07/12 09:47:34;;;;;;;0.65;0.40;;;25.80;57.10;;;;;;4976959;28;20031;-70
2021/07/12 09:50:09;;;;;;;0.60;0.38;;;25.70;57.60;;;;;;4977205;28;20098;-70
2021/07/12 09:52:48;;;;;;;0.65;0.32;;;25.70;58.10;;;;;;4976541;28;20047;-71
2021/07/12 09:55:53;;;;;;;1.23;0.40;;;25.80;59.00;;;;;;4976931;28;20027;-70
2021/07/12 09:58:20;;;;;;;1.40;0.35;;;25.80;58.90;;;;;;4976714;28;20367;-70
2021/07/12 10:00:49;;;;;;;1.35;0.50;;;25.80;58.00;;;;;;4976434;28;20022;-70
2021/07/12 10:03:20;;;;;;;1.95;0.30;;;25.80;57.30;;;;;;4976687;28;20029;-70
2021/07/12 10:05:47;;;;;;;0.50;0.22;;;25.80;58.30;;;;;;4976479;28;20041;-70
2021/07/12 10:08:13;;;;;;;3.13;0.70;;;25.90;57.70;;;;;;4976825;28;20026;-71
2021/07/12 10:10:40;;;;;;;2.00;0.40;;;25.90;56.80;;;;;;4976344;28;20028;-70
2021/07/12 10:13:06;;;;;;;1.00;0.40;;;25.90;57.40;;;;;;4976426;28;20513;-70
2021/07/12 10:15:32;;;;;;;0.73;0.40;;;25.90;56.60;;;;;;4976319;28;20045;-70
2021/07/12 10:17:58;;;;;;;0.90;0.35;;;25.90;56.90;;;;;;4976433;28;20027;-70
2021/07/12 10:20:26;;;;;;;1.67;0.45;;;25.80;56.80;;;;;;4976179;28;20031;-70
2021/07/12 10:22:57;;;;;;;2.40;0.40;;;25.80;56.50;;;;;;4976589;28;20082;-76
2021/07/12 10:25:27;;;;;;;1.98;0.20;;;25.80;56.80;;;;;;4976359;28;20027;-72
2021/07/12 10:27:55;;;;;;;2.72;0.50;;;25.80;56.50;;;;;;4976280;28;20026;-72
2021/07/12 10:30:25;;;;;;;0.95;0.50;;;25.70;56.90;;;;;;4976300;28;20035;-72
2021/07/12 10:33:00;;;;;;;1.95;0.32;;;25.70;57.60;;;;;;4958597;28;20035;-73
2021/07/12 10:35:38;;;;;;;0.98;0.40;;;25.80;57.20;;;;;;4976008;28;20387;-74
2021/07/12 10:38:05;;;;;;;1.73;0.50;;;25.70;56.80;;;;;;4986081;28;20046;-77
2021/07/12 10:40:47;;;;;;;1.08;0.40;;;25.70;57.20;;;;;;4995368;28;20026;-73
2021/07/12 10:43:31;;;;;;;0.70;0.30;;;25.70;56.90;;;;;;5007125;28;20045;-73
2021/07/12 10:45:57;;;;;;;1.58;0.28;;;25.70;55.70;;;;;;5015229;28;20026;-73
2021/07/12 10:48:35;;;;;;;0.88;0.22;;;25.60;56.20;;;;;;5015189;28;20056;-74
2021/07/12 10:51:16;;;;;;;3.35;0.40;;;25.60;55.90;;;;;;5014328;28;20018;-73
2021/07/12 10:53:42;;;;;;;0.20;0.20;;;25.60;55.90;;;;;;5014442;28;20049;-74
2021/07/12 10:56:13;;;;;;;0.77;0.20;;;25.60;55.90;;;;;;5014684;28;20111;-73
2021/07/12 10:58:40;;;;;;;2.50;0.30;;;25.60;57.10;;;;;;5014568;28;20026;-73
2021/07/12 11:01:08;;;;;;;0.90;0.30;;;25.60;56.80;;;;;;5014836;28;20029;-73
2021/07/12 11:03:42;;;;;;;3.63;0.50;;;25.60;56.70;;;;;;5014794;28;20046;-73
2021/07/12 11:06:10;;;;;;;1.02;0.45;;;25.70;57.00;;;;;;5014396;28;20740;-74
2021/07/12 11:08:50;;;;;;;2.55;0.65;;;25.70;57.10;;;;;;5014270;28;20030;-74
2021/07/12 11:11:19;;;;;;;0.63;0.30;;;25.80;56.90;;;;;;5014412;28;20022;-74
2021/07/12 11:13:58;;;;;;;0.40;0.32;;;25.80;57.00;;;;;;5014264;28;20041;-73
2021/07/12 11:16:47;;;;;;;4.45;0.50;;;25.80;57.10;;;;;;5014682;28;20026;-74
2021/07/12 11:19:33;;;;;;;0.30;0.30;;;25.80;56.90;;;;;;5014298;28;20456;-74
2021/07/12 11:22:13;;;;;;;0.77;0.30;;;25.80;56.30;;;;;;5014291;28;20029;-74
2021/07/12 11:25:08;;;;;;;1.45;0.60;;;25.80;55.90;;;;;;5014032;28;20022;-76
2021/07/12 11:27:39;;;;;;;0.30;0.30;;;25.80;56.10;;;;;;5003275;28;20105;-76
2021/07/12 11:30:28;;;;;;;1.02;0.35;;;25.80;56.60;;;;;;5014006;28;20037;-76
2021/07/12 11:32:54;;;;;;;0.80;0.40;;;25.90;56.80;;;;;;5013929;28;20026;-75
2021/07/12 11:35:21;;;;;;;1.48;0.52;;;25.90;56.50;;;;;;4996334;28;20031;-77
2021/07/12 11:37:46;;;;;;;0.60;0.40;;;25.90;56.50;;;;;;5013772;28;20186;-74
2021/07/12 11:40:13;;;;;;;0.60;0.30;;;25.80;57.20;;;;;;5014078;28;20106;-73
2021/07/12 11:42:40;;;;;;;1.00;0.50;;;25.80;57.70;;;;;;5013687;28;20488;-73
2021/07/12 11:45:07;;;;;;;2.42;0.43;;;25.80;57.80;;;;;;5013812;28;20071;-73
2021/07/12 11:47:47;;;;;;;3.42;0.65;;;25.80;57.80;;;;;;5013689;28;20026;-73
2021/07/12 11:50:19;;;;;;;0.98;0.40;;;25.80;58.30;;;;;;5013626;28;20030;-73
2021/07/12 11:52:47;;;;;;;1.75;0.40;;;25.90;57.50;;;;;;5013355;28;20061;-73
2021/07/12 11:55:18;;;;;;;1.05;0.40;;;25.90;57.40;;;;;;5013653;28;20053;-73
2021/07/12 11:57:46;;;;;;;0.70;0.40;;;25.90;57.20;;;;;;5013496;28;20075;-73
2021/07/12 12:00:36;;;;;;;1.35;0.50;;;25.90;57.10;;;;;;5013409;28;20033;-73
2021/07/12 12:03:05;;;;;;;3.38;0.50;;;25.90;57.40;;;;;;5012512;28;20497;-73
2021/07/12 12:05:33;;;;;;;0.57;0.32;;;25.90;57.80;;;;;;5013319;28;20397;-73
2021/07/12 12:08:00;;;;;;;0.65;0.30;;;25.90;58.20;;;;;;5013494;28;20026;-73
2021/07/12 12:10:27;;;;;;;1.15;0.40;;;25.90;58.50;;;;;;5013352;28;20106;-73
2021/07/12 12:12:55;;;;;;;0.90;0.50;;;26.00;58.10;;;;;;5013456;28;20026;-75
2021/07/12 12:15:34;;;;;;;2.20;0.55;;;26.00;58.30;;;;;;5013248;28;20030;-76
2021/07/12 12:18:01;;;;;;;;;;;26.00;57.80;;;;;;5013968;28;20034;-73
2021/07/12 12:20:38;;;;;;;2.92;0.60;;;25.90;57.80;;;;;;5013514;28;19905;-75
2021/07/12 12:23:17;;;;;;;0.70;0.40;;;26.00;58.50;;;;;;5013233;28;20025;-75
2021/07/12 12:25:45;;;;;;;2.10;0.50;;;26.00;58.40;;;;;;5013307;28;20080;-75
2021/07/12 12:28:40;;;;;;;0.82;0.38;;;26.00;58.10;;;;;;5013039;28;20356;-76
2021/07/12 12:31:10;;;;;;;1.67;0.40;;;26.00;58.20;;;;;;5012988;28;20022;-76
2021/07/12 12:33:41;;;;;;;0.55;0.30;;;25.90;56.40;;;;;;5012780;28;20030;-76
2021/07/12 12:36:09;;;;;;;0.85;0.40;;;25.90;57.40;;;;;;5012923;28;20422;-76
2021/07/12 12:38:37;;;;;;;1.90;0.22;;;25.80;57.60;;;;;;5012783;28;20022;-76
2021/07/12 12:41:04;;;;;;;2.55;0.50;;;25.80;57.70;;;;;;5012844;28;20022;-76
2021/07/12 12:43:30;;;;;;;1.60;0.50;;;25.80;57.70;;;;;;5012805;28;20120;-76
2021/07/12 12:46:00;;;;;;;0.98;0.40;;;25.90;58.20;;;;;;5012808;28;20501;-76
2021/07/12 12:48:55;;;;;;;0.43;0.40;;;25.90;58.30;;;;;;5012791;28;20625;-76
2021/07/12 12:51:33;;;;;;;0.95;0.47;;;25.90;57.10;;;;;;5010310;28;20052;-76
2021/07/12 12:54:09;;;;;;;0.40;0.40;;;25.90;56.80;;;;;;5012977;28;20042;-76
2021/07/12 12:56:37;;;;;;;4.85;0.65;;;25.90;57.40;;;;;;5012415;28;20302;-76
2021/07/12 12:59:06;;;;;;;0.60;0.40;;;25.90;57.00;;;;;;5012898;28;20030;-75
2021/07/12 13:01:41;;;;;;;3.25;0.50;;;25.90;57.50;;;;;;5012573;28;20776;-76
2021/07/12 13:04:18;;;;;;;0.65;0.35;;;26.00;57.30;;;;;;5012613;28;20033;-76
2021/07/12 13:06:49;;;;;;;1.13;0.50;;;26.00;58.00;;;;;;5012374;28;20083;-76
2021/07/12 13:09:33;;;;;;;0.88;0.40;;;26.00;56.50;;;;;;5012787;28;20051;-76
2021/07/12 13:12:12;;;;;;;0.80;0.40;;;25.90;56.40;;;;;;5012478;28;20022;-75
2021/07/12 13:14:42;;;;;;;0.40;0.40;;;26.00;56.70;;;;;;5011951;28;20311;-76
2021/07/12 13:17:10;;;;;;;0.55;0.40;;;26.00;57.30;;;;;;5012467;28;20105;-76
2021/07/12 13:19:39;;;;;;;7.25;0.50;;;26.00;56.20;;;;;;5012314;28;20478;-76
2021/07/12 13:22:20;;;;;;;2.70;0.40;;;25.90;55.60;;;;;;5012287;28;20025;-76
2021/07/12 13:24:49;;;;;;;0.73;0.40;;;25.90;56.20;;;;;;5012122;28;20018;-76
2021/07/12 13:27:56;;;;;;;4.82;0.55;;;26.00;56.20;;;;;;5012254;28;20478;-76
2021/07/12 13:30:25;;;;;;;0.80;0.50;;;26.00;56.10;;;;;;4913497;29;20033;-76
2021/07/12 13:32:52;;;;;;;0.27;0.27;;;26.00;56.30;;;;;;4913399;29;20062;-76